Morning Celine — 3FMC5 — position and weather

sailwx.info

Track history (hours):
 
Tides and Currents Weather Stations Pressure Air Temp Water Temp Dewpoint Dewpoint Depression Visibility Wind Speed Wind Dir Waves Ship Positions

Morning Celine

Last reported at 2018-May-25 04:10 UTC. Time now 2018-May-28 09:43 UTC.
Position N 31°06' E 122°32'.

Length 199 m; draft 8.3 m.

Type: Cargo ship. MMSI: 356956000.

Date/timePositionNaut miles runAvg speedWind from/ knotsBaromVisibWave heightAir tempDewpointWater temp
2018-May-25 04:10N 31°06' E 122°32'610.4
2018-May-25 03:38N 31°06' E 122°25'213.8
2018-May-25 03:30N 31°06' E 122°23'714.1
2018-May-25 03:00N 31°08' E 122°15'814.7
2018-May-25 02:27N 31°13' E 122°08'714.6
2018-May-25 02:00N 31°15' E 122°00'814.6
2018-May-25 01:28N 31°16' E 121°51'613.6
2018-May-25 01:00N 31°19' E 121°44'31 2.0
2018-May-24 09:00N 31°07' E 122°18'712.9
2018-May-24 08:30N 31°07' E 122°25'6 8.0
2018-May-24 07:41N 31°07' E 122°33'2 9.4
2018-May-24 07:30N 31°07' E 122°35'5 8.7
2018-May-24 06:56N 31°07' E 122°41'4 7.8
2018-May-24 06:29N 31°07' E 122°45'510.4
2018-May-24 06:00N 31°07' E 122°51'510.5
2018-May-24 05:30N 31°10' E 122°56'2 3.7
2018-May-24 05:00N 31°12' E 122°57'0 0.3
2018-May-24 04:25N 31°12' E 122°57'0 0.3
2018-May-24 04:00N 31°11' E 122°57'0 0.3
2018-May-24 03:30N 31°11' E 122°57'0 0.4
2018-May-24 02:48N 31°11' E 122°57'0 0.6
2018-May-24 02:29N 31°11' E 122°57'0 0.4
2018-May-24 02:00N 31°11' E 122°58'0 0.5
2018-May-24 01:30N 31°11' E 122°58'0 0.6
2018-May-24 01:00N 31°11' E 122°58'0 0.7
2018-May-24 00:30N 31°11' E 122°58'1 0.7
2018-May-23 23:42N 31°10' E 122°59'0 0.7
2018-May-23 23:30N 31°10' E 122°59'0 0.7
2018-May-23 23:00N 31°10' E 122°60'0 0.8
2018-May-23 22:30N 31°10' E 122°60'0 0.8
2018-May-23 22:00N 31°10' E 123°00'0 0.8
2018-May-23 21:30N 31°10' E 123°01'0 0.9
2018-May-23 20:59N 31°10' E 123°01'1 1.1
2018-May-23 20:23N 31°10' E 123°02'0 0.6
2018-May-23 19:57N 31°10' E 123°02'0 0.8
2018-May-23 19:30N 31°10' E 123°03'0 0.9
2018-May-23 19:00N 31°10' E 123°03'1 1.1
2018-May-23 18:27N 31°11' E 123°04'1 1.0
2018-May-23 17:45N 31°11' E 123°04'0 1.1
2018-May-23 17:27N 31°12' E 123°04'1 1.2
2018-May-23 17:00N 31°12' E 123°04'1 1.3
2018-May-23 16:30N 31°13' E 123°04'4 1.0
2018-May-23 12:49N 31°16' E 123°02'0 0.7
2018-May-23 12:29N 31°16' E 123°02'0 0.4
2018-May-23 12:00N 31°17' E 123°02'0 0.2
2018-May-23 11:30N 31°17' E 123°02'0 0.3
2018-May-23 10:58N 31°17' E 123°02'2 2.7
2018-May-23 10:19N 31°16' E 123°00'310.6
2018-May-23 10:00N 31°14' E 122°57'1 0.4
2018-May-23 06:13N 31°15' E 122°58'0 0.8
2018-May-23 06:00N 31°15' E 122°58'1 1.1
2018-May-23 05:28N 31°15' E 122°57'5 9.4
2018-May-23 04:57N 31°10' E 122°56'39810.0
2018-May-21 13:12N 37°48' E 122°23'317.5
2018-May-21 13:00N 37°49' E 122°18'2116.3
2018-May-21 11:43N 37°45' E 121°53'416.3
2018-May-21 11:30N 37°44' E 121°48'816.1
2018-May-21 11:00N 37°41' E 121°39'815.2
2018-May-21 10:30N 37°39' E 121°30'5 9.3
2018-May-21 10:00N 37°35' E 121°26'3 5.4
2018-May-21 09:29N 37°34' E 121°23'0 0.0
2018-May-21 08:59N 37°34' E 121°23'0 0.0
2018-May-21 08:29N 37°34' E 121°23'0 0.0
2018-May-21 07:56N 37°34' E 121°23'0 0.0
2018-May-21 07:26N 37°34' E 121°23'0 0.0
2018-May-21 06:59N 37°34' E 121°23'0 0.0
2018-May-21 06:26N 37°34' E 121°23'0 0.0
2018-May-21 05:44N 37°34' E 121°23'0 0.0
2018-May-21 05:29N 37°34' E 121°23'0 0.0
2018-May-21 04:53N 37°34' E 121°23'0 0.0
2018-May-21 04:29N 37°34' E 121°23'0 0.0
2018-May-21 03:59N 37°34' E 121°23'0 0.0
2018-May-21 03:29N 37°34' E 121°23'0 0.0
2018-May-21 02:50N 37°34' E 121°23'0 0.0
2018-May-21 02:26N 37°34' E 121°23'0 0.0
2018-May-21 01:56N 37°34' E 121°23'0 0.0
2018-May-21 01:29N 37°34' E 121°23'0 0.0
2018-May-21 00:59N 37°34' E 121°23'0 0.0
2018-May-21 00:20N 37°34' E 121°23'0 0.0
2018-May-20 23:59N 37°34' E 121°23'0 0.0
2018-May-20 23:29N 37°34' E 121°23'0 0.0
2018-May-20 22:59N 37°34' E 121°23'0 0.0
2018-May-20 22:29N 37°34' E 121°23'0 0.0
2018-May-20 21:56N 37°34' E 121°23'0 0.0
2018-May-20 21:29N 37°34' E 121°23'0 0.0
2018-May-20 20:59N 37°34' E 121°23'0 0.0
2018-May-20 20:29N 37°34' E 121°23'0 0.0
2018-May-20 19:59N 37°34' E 121°23'0 0.0
2018-May-20 19:26N 37°34' E 121°23'0 0.0
2018-May-20 18:59N 37°34' E 121°23'0 0.0
2018-May-20 18:29N 37°34' E 121°23'0 0.0
2018-May-20 17:56N 37°34' E 121°23'0 0.0
2018-May-20 17:29N 37°34' E 121°23'0 0.0
2018-May-20 16:59N 37°34' E 121°23'0 0.0
2018-May-20 16:23N 37°34' E 121°23'0 0.0
2018-May-20 15:56N 37°34' E 121°23'0 0.0
2018-May-20 15:26N 37°34' E 121°23'0 0.0
2018-May-20 14:56N 37°34' E 121°23'0 0.0
2018-May-20 14:20N 37°34' E 121°23'0 0.0
2018-May-20 13:56N 37°34' E 121°23'0 0.0
2018-May-20 13:29N 37°34' E 121°23'0 0.0
2018-May-20 12:59N 37°34' E 121°23'0 0.0
2018-May-20 12:26N 37°34' E 121°23'0 0.0
2018-May-20 11:59N 37°34' E 121°23'0 0.0
2018-May-20 11:29N 37°34' E 121°23'0 0.0
2018-May-20 10:59N 37°34' E 121°23'0 0.0
2018-May-20 10:29N 37°34' E 121°23'0 0.0
2018-May-20 09:53N 37°34' E 121°23'0 0.0
2018-May-20 09:29N 37°34' E 121°23'0 0.0
2018-May-20 08:59N 37°34' E 121°23'0 0.0
2018-May-20 08:31N 37°34' E 121°23'0 0.4
2018-May-20 08:00N 37°34' E 121°23'2 3.7
2018-May-20 07:30N 37°35' E 121°25'4 8.8
2018-May-20 07:00N 37°38' E 121°29'3 5.1
2018-May-20 06:30N 37°40' E 121°30'612.6
2018-May-20 06:00N 37°46' E 121°34'815.8
2018-May-20 05:30N 37°52' E 121°41'713.7
2018-May-20 05:00N 37°57' E 121°46'1 1.6
2018-May-20 04:31N 37°57' E 121°47'1 1.4
2018-May-20 04:00N 37°56' E 121°48'1 1.2
2018-May-20 03:30N 37°56' E 121°49'0 0.6
2018-May-20 03:00N 37°56' E 121°49'0 0.3
2018-May-20 02:27N 37°56' E 121°49'0 0.5
2018-May-20 02:01N 37°56' E 121°50'4 7.4
2018-May-20 01:31N 37°56' E 121°54'713.2
2018-May-20 01:01N 37°55' E 122°02'816.5
2018-May-20 00:30N 37°53' E 122°13'916.8
2018-May-19 23:59N 37°50' E 122°23'  
Track history (hours):
 
Tides and Currents Weather Stations Pressure Air Temp Water Temp Dewpoint Dewpoint Depression Visibility Wind Speed Wind Dir Waves Ship Positions

Morning Celine

Last reported at 2018-May-25 04:10 UTC. Time now 2018-May-28 09:43 UTC.
Position N 31°06' E 122°32'.

Length 199 m; draft 8.3 m.

Type: Cargo ship. MMSI: 356956000.

Date/timePositionNaut miles runAvg speedWind from/ knotsBaromVisibWave heightAir tempDewpointWater temp
2018-May-25 04:10N 31°06' E 122°32'610.4
2018-May-25 03:38N 31°06' E 122°25'213.8
2018-May-25 03:30N 31°06' E 122°23'714.1
2018-May-25 03:00N 31°08' E 122°15'814.7
2018-May-25 02:27N 31°13' E 122°08'714.6
2018-May-25 02:00N 31°15' E 122°00'814.6
2018-May-25 01:28N 31°16' E 121°51'613.6
2018-May-25 01:00N 31°19' E 121°44'31 2.0
2018-May-24 09:00N 31°07' E 122°18'712.9
2018-May-24 08:30N 31°07' E 122°25'6 8.0
2018-May-24 07:41N 31°07' E 122°33'2 9.4
2018-May-24 07:30N 31°07' E 122°35'5 8.7
2018-May-24 06:56N 31°07' E 122°41'4 7.8
2018-May-24 06:29N 31°07' E 122°45'510.4
2018-May-24 06:00N 31°07' E 122°51'510.5
2018-May-24 05:30N 31°10' E 122°56'2 3.7
2018-May-24 05:00N 31°12' E 122°57'0 0.3
2018-May-24 04:25N 31°12' E 122°57'0 0.3
2018-May-24 04:00N 31°11' E 122°57'0 0.3
2018-May-24 03:30N 31°11' E 122°57'0 0.4
2018-May-24 02:48N 31°11' E 122°57'0 0.6
2018-May-24 02:29N 31°11' E 122°57'0 0.4
2018-May-24 02:00N 31°11' E 122°58'0 0.5
2018-May-24 01:30N 31°11' E 122°58'0 0.6
2018-May-24 01:00N 31°11' E 122°58'0 0.7
2018-May-24 00:30N 31°11' E 122°58'1 0.7
2018-May-23 23:42N 31°10' E 122°59'0 0.7
2018-May-23 23:30N 31°10' E 122°59'0 0.7
2018-May-23 23:00N 31°10' E 122°60'0 0.8
2018-May-23 22:30N 31°10' E 122°60'0 0.8
2018-May-23 22:00N 31°10' E 123°00'0 0.8
2018-May-23 21:30N 31°10' E 123°01'0 0.9
2018-May-23 20:59N 31°10' E 123°01'1 1.1
2018-May-23 20:23N 31°10' E 123°02'0 0.6
2018-May-23 19:57N 31°10' E 123°02'0 0.8
2018-May-23 19:30N 31°10' E 123°03'0 0.9
2018-May-23 19:00N 31°10' E 123°03'1 1.1
2018-May-23 18:27N 31°11' E 123°04'1 1.0
2018-May-23 17:45N 31°11' E 123°04'0 1.1
2018-May-23 17:27N 31°12' E 123°04'1 1.2
2018-May-23 17:00N 31°12' E 123°04'1 1.3
2018-May-23 16:30N 31°13' E 123°04'4 1.0
2018-May-23 12:49N 31°16' E 123°02'0 0.7
2018-May-23 12:29N 31°16' E 123°02'0 0.4
2018-May-23 12:00N 31°17' E 123°02'0 0.2
2018-May-23 11:30N 31°17' E 123°02'0 0.3
2018-May-23 10:58N 31°17' E 123°02'2 2.7
2018-May-23 10:19N 31°16' E 123°00'310.6
2018-May-23 10:00N 31°14' E 122°57'1 0.4
2018-May-23 06:13N 31°15' E 122°58'0 0.8
2018-May-23 06:00N 31°15' E 122°58'1 1.1
2018-May-23 05:28N 31°15' E 122°57'5 9.4
2018-May-23 04:57N 31°10' E 122°56'39810.0
2018-May-21 13:12N 37°48' E 122°23'317.5
2018-May-21 13:00N 37°49' E 122°18'2116.3
2018-May-21 11:43N 37°45' E 121°53'416.3
2018-May-21 11:30N 37°44' E 121°48'816.1
2018-May-21 11:00N 37°41' E 121°39'815.2
2018-May-21 10:30N 37°39' E 121°30'5 9.3
2018-May-21 10:00N 37°35' E 121°26'3 5.4
2018-May-21 09:29N 37°34' E 121°23'0 0.0
2018-May-21 08:59N 37°34' E 121°23'0 0.0
2018-May-21 08:29N 37°34' E 121°23'0 0.0
2018-May-21 07:56N 37°34' E 121°23'0 0.0
2018-May-21 07:26N 37°34' E 121°23'0 0.0
2018-May-21 06:59N 37°34' E 121°23'0 0.0
2018-May-21 06:26N 37°34' E 121°23'0 0.0
2018-May-21 05:44N 37°34' E 121°23'0 0.0
2018-May-21 05:29N 37°34' E 121°23'0 0.0
2018-May-21 04:53N 37°34' E 121°23'0 0.0
2018-May-21 04:29N 37°34' E 121°23'0 0.0
2018-May-21 03:59N 37°34' E 121°23'0 0.0
2018-May-21 03:29N 37°34' E 121°23'0 0.0
2018-May-21 02:50N 37°34' E 121°23'0 0.0
2018-May-21 02:26N 37°34' E 121°23'0 0.0
2018-May-21 01:56N 37°34' E 121°23'0 0.0
2018-May-21 01:29N 37°34' E 121°23'0 0.0
2018-May-21 00:59N 37°34' E 121°23'0 0.0
2018-May-21 00:20N 37°34' E 121°23'0 0.0
2018-May-20 23:59N 37°34' E 121°23'0 0.0
2018-May-20 23:29N 37°34' E 121°23'0 0.0
2018-May-20 22:59N 37°34' E 121°23'0 0.0
2018-May-20 22:29N 37°34' E 121°23'0 0.0
2018-May-20 21:56N 37°34' E 121°23'0 0.0
2018-May-20 21:29N 37°34' E 121°23'0 0.0
2018-May-20 20:59N 37°34' E 121°23'0 0.0
2018-May-20 20:29N 37°34' E 121°23'0 0.0
2018-May-20 19:59N 37°34' E 121°23'0 0.0
2018-May-20 19:26N 37°34' E 121°23'0 0.0
2018-May-20 18:59N 37°34' E 121°23'0 0.0
2018-May-20 18:29N 37°34' E 121°23'0 0.0
2018-May-20 17:56N 37°34' E 121°23'0 0.0
2018-May-20 17:29N 37°34' E 121°23'0 0.0
2018-May-20 16:59N 37°34' E 121°23'0 0.0
2018-May-20 16:23N 37°34' E 121°23'0 0.0
2018-May-20 15:56N 37°34' E 121°23'0 0.0
2018-May-20 15:26N 37°34' E 121°23'0 0.0
2018-May-20 14:56N 37°34' E 121°23'0 0.0
2018-May-20 14:20N 37°34' E 121°23'0 0.0
2018-May-20 13:56N 37°34' E 121°23'0 0.0
2018-May-20 13:29N 37°34' E 121°23'0 0.0
2018-May-20 12:59N 37°34' E 121°23'0 0.0
2018-May-20 12:26N 37°34' E 121°23'0 0.0
2018-May-20 11:59N 37°34' E 121°23'0 0.0
2018-May-20 11:29N 37°34' E 121°23'0 0.0
2018-May-20 10:59N 37°34' E 121°23'0 0.0
2018-May-20 10:29N 37°34' E 121°23'0 0.0
2018-May-20 09:53N 37°34' E 121°23'0 0.0
2018-May-20 09:29N 37°34' E 121°23'0 0.0
2018-May-20 08:59N 37°34' E 121°23'0 0.0
2018-May-20 08:31N 37°34' E 121°23'0 0.4
2018-May-20 08:00N 37°34' E 121°23'2 3.7
2018-May-20 07:30N 37°35' E 121°25'4 8.8
2018-May-20 07:00N 37°38' E 121°29'3 5.1
2018-May-20 06:30N 37°40' E 121°30'612.6
2018-May-20 06:00N 37°46' E 121°34'815.8
2018-May-20 05:30N 37°52' E 121°41'713.7
2018-May-20 05:00N 37°57' E 121°46'1 1.6
2018-May-20 04:31N 37°57' E 121°47'1 1.4
2018-May-20 04:00N 37°56' E 121°48'1 1.2
2018-May-20 03:30N 37°56' E 121°49'0 0.6
2018-May-20 03:00N 37°56' E 121°49'0 0.3
2018-May-20 02:27N 37°56' E 121°49'0 0.5
2018-May-20 02:01N 37°56' E 121°50'4 7.4
2018-May-20 01:31N 37°56' E 121°54'713.2
2018-May-20 01:01N 37°55' E 122°02'816.5
2018-May-20 00:30N 37°53' E 122°13'916.8
2018-May-19 23:59N 37°50' E 122°23'  

Dump ship's entire track history